Flight Track Log - Related Links

Times and Time Zones

All times are in EDT time to prevent confusion due to time zone crossing. See the N242SR flight status page for this flight to view local times or setup timezone preferences in your user account.

Time Position Orientation Groundspeed Altitude Reporting Facility
EDT Latitude Longitude Course Direction KTS MPH feet Rate Location/Type
Sun 12:05:12 PM 39.3333 -76.4333 303° West 110 127 1,100  Level Potomac TRACON
Sun 12:06:13 PM 39.3500 -76.4667 303° West 145 167 2,000 893 Climbing Potomac TRACON
Sun 12:07:13 PM 39.3167 -76.4833 201° Southwest 148 170 2,900 900 Climbing Potomac TRACON
Sun 12:08:13 PM 39.2833 -76.4333 131° Southeast 146 168 3,800 950 Climbing Potomac TRACON
Sun 12:09:13 PM 39.2667 -76.4000 123° Southeast 143 165 4,800 1,000 Climbing Potomac TRACON
Sun 12:10:13 PM 39.2500 -76.3500 113° Southeast 136 157 5,800 843 Climbing Potomac TRACON
Sun 12:11:14 PM 39.2500 -76.3000 90° East 143 165 6,500 614 Climbing Potomac TRACON
Sun 12:12:20 PM 39.2333 -76.2500 113° Southeast 151 174 7,100 300 Climbing Potomac TRACON
Sun 12:13:14 PM 39.2333 -76.2000 90° East 178 205 7,100  Level Potomac TRACON
Sun 12:14:20 PM 39.2406 -76.1247 83° East 178 205 7,100  Level FAA TRACON SMA TRACON (SMA)
Sun 12:14:40 PM 39.2411 -76.1011 88° East 177 204 7,100  Level FAA TRACON SMA TRACON (SMA)
Sun 12:15:00 PM 39.2403 -76.0808 93° East 176 203 7,100  Level FAA TRACON SMA TRACON (SMA)
Sun 12:15:20 PM 39.2406 -76.0603 89° East 175 201 7,100  Level FAA TRACON SMA TRACON (SMA)
Sun 12:15:40 PM 39.2397 -76.0397 93° East 174 200 7,100  Level FAA TRACON SMA TRACON (SMA)
Sun 12:16:00 PM 39.2394 -76.0194 91° East 174 200 7,100  Level FAA TRACON SMA TRACON (SMA)
Sun 12:16:20 PM 39.2386 -76.0036 94° East 174 200 7,100  Level FAA TRACON SMA TRACON (SMA)
Sun 12:16:40 PM 39.2392 -75.9756 89° East 173 199 7,100  Level FAA TRACON SMA TRACON (SMA)
Sun 12:17:00 PM 39.2364 -75.9553 100° East 173 199 7,100  Level FAA TRACON SMA TRACON (SMA)
Sun 12:17:20 PM 39.2381 -75.9333 84° East 171 197 7,100  Level FAA TRACON SMA TRACON (SMA)
Sun 12:17:40 PM 39.2394 -75.9156 84° East 172 198 7,100  Level FAA TRACON SMA TRACON (SMA)
Sun 12:18:00 PM 39.2367 -75.8936 99° East 172 198 7,100  Level FAA TRACON SMA TRACON (SMA)
Sun 12:18:20 PM 39.2378 -75.8756 85° East 173 199 7,100  Level FAA TRACON SMA TRACON (SMA)
Sun 12:18:40 PM 39.2375 -75.8517 91° East 172 198 7,100  Level FAA TRACON SMA TRACON (SMA)
Sun 12:19:01 PM 39.2369 -75.8328 92° East 172 198 7,100  Level FAA TRACON SMA TRACON (SMA)
Sun 12:19:19 PM 39.2369 -75.8139 90° East 172 198 7,100  Level FAA TRACON SMA TRACON (SMA)
Sun 12:19:39 PM 39.2364 -75.7903 92° East 169 194 7,100  Level FAA TRACON SMA TRACON (SMA)
Sun 12:20:00 PM 39.2364 -75.7717 90° East 169 194 7,100  Level FAA TRACON SMA TRACON (SMA)
Sun 12:20:19 PM 39.2361 -75.7525 91° East 171 197 7,100  Level FAA TRACON SMA TRACON (SMA)
Sun 12:20:39 PM 39.2358 -75.7289 91° East 172 198 7,100  Level FAA TRACON SMA TRACON (SMA)
Sun 12:20:59 PM 39.2358 -75.7100 90° East 170 196 7,100  Level FAA TRACON SMA TRACON (SMA)
Sun 12:21:19 PM 39.2356 -75.6911 91° East 171 197 7,100  Level FAA TRACON SMA TRACON (SMA)
Sun 12:21:39 PM 39.2347 -75.6658 92° East 173 199 7,100  Level FAA TRACON SMA TRACON (SMA)
Sun 12:21:59 PM 39.2353 -75.6528 87° East 173 199 7,100  Level FAA TRACON SMA TRACON (SMA)
Sun 12:22:19 PM 39.2353 -75.6289 90° East 173 199 7,100  Level FAA TRACON SMA TRACON (SMA)
Sun 12:22:39 PM 39.2372 -75.6058 84° East 172 198 7,100  Level FAA TRACON SMA TRACON (SMA)
Sun 12:23:00 PM 39.2386 -75.5869 85° East 169 194 7,100  Level FAA TRACON SMA TRACON (SMA)
Sun 12:23:19 PM 39.2392 -75.5778 86° East 168 193 7,100  Level FAA TRACON SMA TRACON (SMA)
Sun 12:25:00 PM 39.2177 -75.5035 110° East  Level FlightAware Approximate
Sun 12:30:02 PM 39.2542 -75.1575 36° Northeast 170 196 7,100  Level Washington Center
Sun 12:32:00 PM 39.2500 -75.0811 90° East  Level FlightAware Approximate
Sun 12:32:00 PM 39.2518 -75.0391 91° East  Level FlightAware Approximate
Sun 12:33:00 PM 39.2500 -75.0209 90° East  Level FlightAware Approximate
Sun 12:33:15 PM 39.2617 -74.9589 91° East 172 198 7,100  Level Washington Center
Sun 12:34:00 PM 39.2500 -74.9606 90° East  Level FlightAware Approximate
Sun 12:35:00 PM 39.2812 -74.9210 36° Northeast  Level FlightAware Approximate
Sun 12:35:00 PM 39.3106 -74.8936 36° Northeast  Level FlightAware Approximate
Sun 12:37:39 PM 39.4172 -74.8125 38° Northeast 161 185 7,100  Level Washington Center
Sun 12:39:00 PM 39.4655 -74.7601 40° Northeast  Level FlightAware Approximate
Sun 12:42:00 PM 39.5736 -74.6431 38° Northeast  Level FlightAware Approximate
Sun 12:43:00 PM 39.6105 -74.6061 38° Northeast  Level FlightAware Approximate
Sun 12:46:00 PM 39.7154 -74.4874 34° Northeast  Level Estimated
Sun 12:47:00 PM 39.7510 -74.4483 35° Northeast  Level Estimated
Sun 12:48:00 PM 39.7908 -74.4167 31° Northeast  Level FlightAware Approximate
Sun 12:49:00 PM 39.8307 -74.3851 31° Northeast  Level FlightAware Approximate
Sun 12:50:00 PM 39.8704 -74.3534 31° Northeast  Level FlightAware Approximate
Sun 12:51:00 PM 39.9059 -74.3139 37° Northeast  Level Estimated
Sun 12:52:00 PM 39.9413 -74.2742 46° Northeast  Level Estimated
Sun 12:52:54 PM 39.9667 -74.3000 28° Northeast 157 181 7,100  Level New York TRACON
Sun 12:53:00 PM 39.9800 -74.2404 34° Northeast  Level FlightAware Approximate
Sun 12:53:48 PM 39.9833 -74.2667 57° Northeast 161 185 7,100  Level New York TRACON
Sun 12:54:00 PM 40.0154 -74.2007 30° Northeast  Level Estimated
Sun 12:54:48 PM 40.0333 -74.2333 27° Northeast 159 183 7,100  Level New York TRACON
Sun 12:55:00 PM 40.0559 -74.1704 30° Northeast  Level FlightAware Approximate
Sun 12:55:54 PM 40.0667 -74.2000 37° Northeast 165 190 7,100  Level New York TRACON
Sun 12:56:00 PM 40.0964 -74.1402 30° Northeast  Level FlightAware Approximate
Sun 12:56:48 PM 40.1000 -74.1667 37° Northeast 159 183 7,100  Level New York TRACON
Sun 12:57:00 PM 40.1315 -74.1000 28° Northeast  Level Estimated
Sun 12:57:48 PM 40.1333 -74.1333 37° Northeast 157 181 7,100  Level New York TRACON
Sun 12:58:00 PM 40.1728 -74.0718 28° Northeast  Level FlightAware Approximate
Sun 12:58:48 PM 40.1667 -74.1000 37° Northeast 164 189 7,100  Level New York TRACON
Sun 12:59:48 PM 40.2167 -74.0833 14° North 160 184 7,100  Level New York TRACON
Sun 01:00:48 PM 40.2500 -74.0500 37° Northeast 156 180 7,100  Level New York TRACON
Sun 01:01:48 PM 40.2833 -74.0333 21° North 157 181 7,100  Level New York TRACON
Sun 01:02:48 PM 40.3333 -74.0000 27° Northeast 158 182 7,100  Level New York TRACON
Sun 01:03:48 PM 40.3667 -73.9667 37° Northeast 157 181 7,100  Level New York TRACON
Sun 01:04:48 PM 40.4000 -73.9500 21° North 160 184 7,100  Level New York TRACON
Sun 01:05:48 PM 40.4500 -73.9167 27° Northeast 161 185 7,100  Level New York TRACON
Sun 01:06:48 PM 40.4833 -73.8833 37° Northeast 160 184 7,100  Level New York TRACON
Sun 01:07:48 PM 40.5167 -73.8500 37° Northeast 158 182 7,100  Level New York TRACON
Sun 01:08:42 PM 40.5500 -73.8333 21° North 156 180 7,100  Level New York TRACON
Sun 01:09:42 PM 40.6000 -73.8000 27° Northeast 151 174 7,100  Level New York TRACON
Sun 01:10:42 PM 40.6333 -73.7667 37° Northeast 135 155 7,100  Level New York TRACON
Sun 01:11:48 PM 40.6667 -73.7333 37° Northeast 134 154 7,100  Level New York TRACON
Sun 01:12:42 PM 40.7000 -73.7000 37° Northeast 157 181 7,100  Level New York TRACON
Sun 01:13:42 PM 40.7333 -73.6667 37° Northeast 160 184 7,100  Level New York TRACON
Sun 01:14:42 PM 40.7667 -73.6167 49° Northeast 166 191 7,100  Level New York TRACON
Sun 01:15:43 PM 40.8000 -73.5833 37° Northeast 163 188 7,100  Level New York TRACON
Sun 01:16:43 PM 40.8333 -73.5500 37° Northeast 161 185 7,100  Level New York TRACON
Sun 01:17:48 PM 40.8500 -73.4833 72° East 169 194 7,100  Level New York TRACON
Sun 01:18:48 PM 40.8500 -73.4167 90° East 168 193 7,100  Level New York TRACON
Sun 01:19:49 PM 40.8667 -73.3500 72° East 169 194 7,100  Level New York TRACON
Sun 01:20:42 PM 40.9000 -73.3167 37° Northeast 167 192 7,100  Level New York TRACON
Sun 01:21:43 PM 40.9333 -73.2833 37° Northeast 163 188 7,100  Level New York TRACON
Sun 01:22:43 PM 40.9667 -73.2500 37° Northeast 164 189 7,100  Level New York TRACON
Sun 01:23:43 PM 41.0000 -73.2167 37° Northeast 163 188 7,100  Level New York TRACON
Sun 01:24:48 PM 41.0500 -73.1667 37° Northeast 163 188 7,100  Level New York TRACON
Sun 01:25:48 PM 41.0833 -73.1333 37° Northeast 162 186 7,100  Level New York TRACON
Sun 01:26:49 PM 41.1167 -73.1000 37° Northeast 158 182 7,100  Level New York TRACON
Sun 01:27:49 PM 41.1500 -73.0667 37° Northeast 157 181 7,100  Level New York TRACON
Sun 01:28:48 PM 41.1833 -73.0333 37° Northeast 158 182 7,100  Level New York TRACON
Sun 01:29:20 PM 41.1986 -73.0139 44° Northeast 160 184 7,100  Level Boston Center
Sun 01:30:09 PM 41.2258 -72.9836 40° Northeast 155 178 7,100  Level Boston Center
Sun 01:31:10 PM 41.2614 -72.9481 37° Northeast 158 182 7,100  Level Boston Center
Sun 01:32:11 PM 41.2969 -72.9125 37° Northeast 159 183 7,100  Level Boston Center
Sun 01:33:12 PM 41.3325 -72.8769 37° Northeast 158 182 7,100  Level Boston Center
Sun 01:34:13 PM 41.3681 -72.8356 41° Northeast 160 184 7,100  Level Boston Center
Sun 01:35:08 PM 41.4036 -72.8025 35° Northeast 164 189 7,100  Level Boston Center
Sun 01:36:09 PM 41.4372 -72.7642 41° Northeast 162 186 7,100  Level Boston Center
Sun 01:37:10 PM 41.4725 -72.7283 37° Northeast 159 183 7,100  Level Boston Center
Sun 01:38:10 PM 41.5061 -72.6922 39° Northeast 159 183 7,100  Level Boston Center
Sun 01:38:59 PM 41.5353 -72.6592 40° Northeast 162 186 7,100  Level Boston Center
Sun 01:40:06 PM 41.5750 -72.6206 36° Northeast 165 190 7,100  Level Boston Center
Sun 01:41:07 PM 41.6106 -72.5844 37° Northeast 158 182 7,100  Level Boston Center
Sun 01:42:08 PM 41.6458 -72.5456 39° Northeast 160 184 7,100  Level Boston Center
Sun 01:43:15 PM 41.6814 -72.5067 39° Northeast 157 181 7,100  Level Boston Center
Sun 01:44:16 PM 41.7169 -72.4706 37° Northeast 157 181 7,100  Level Boston Center
Sun 01:45:17 PM 41.7522 -72.4261 43° Northeast 156 180 7,100  Level Boston Center
Sun 01:46:18 PM 41.7856 -72.3900 39° Northeast 153 176 7,100  Level Boston Center
Sun 01:47:13 PM 41.8147 -72.3564 41° Northeast 152 175 7,100  Level Boston Center
Sun 01:48:14 PM 41.8503 -72.3203 37° Northeast 154 177 7,100  Level Boston Center
Sun 01:49:15 PM 41.8833 -72.2867 37° Northeast 156 180 7,100  Level Boston Center
Sun 01:50:22 PM 41.9208 -72.2419 42° Northeast 154 177 7,100  Level Boston Center
Sun 01:51:23 PM 41.9542 -72.2028 41° Northeast 155 178 7,100  Level Boston Center
Sun 01:52:17 PM 41.9833 -72.1692 41° Northeast 153 176 7,100 -104 Level Boston Center
Sun 01:53:18 PM 42.0186 -72.1328 37° Northeast 159 183 6,900 -344 Descending Boston Center
Sun 01:54:19 PM 42.0539 -72.0933 40° Northeast 163 188 6,400 -492 Descending Boston Center
Sun 01:55:20 PM 42.0914 -72.0511 40° Northeast 169 194 5,900 -492 Descending Boston Center
Sun 01:56:21 PM 42.1267 -72.0119 39° Northeast 168 193 5,400 -375 Descending Boston Center
Sun 01:57:28 PM 42.1681 -71.9694 37° Northeast 164 189 5,100 -141 Descending Boston Center
Sun 01:58:29 PM 42.1992 -71.9300 43° Northeast 156 180 5,100  Level Boston Center
Sun 01:59:30 PM 42.2322 -71.8933 39° Northeast 154 177 5,100  Level Boston Center
Sun 02:01:01 PM 42.2833 -71.8333 41° Northeast 146 168 5,100  Level KA90
Sun 02:02:02 PM 42.3167 -71.8000 36° Northeast 147 169 5,100  Level KA90
Sun 02:03:02 PM 42.3500 -71.7667 36° Northeast 153 176 5,100  Level KA90
Sun 02:04:02 PM 42.3667 -71.7167 66° East 161 185 5,100 -50 Level KA90
Sun 02:05:01 PM 42.3833 -71.6500 71° East 152 175 5,000 -400 Descending KA90
Sun 02:06:02 PM 42.4167 -71.6000 48° Northeast 178 205 4,300 -365 Descending KA90
Sun 02:08:02 PM 42.4667 -71.5000 56° Northeast 164 189 3,900 -267 Descending KA90
Sun 02:09:02 PM 42.5000 -71.4500 48° Northeast 170 196 3,500 -632 Descending KA90
Sun 02:09:56 PM 42.5000 -71.3833 90° East 173 199 2,700 -789 Descending KA90
Sun 02:10:56 PM 42.5000 -71.3333 90° East 125 144 2,000 -600 Descending KA90
Sun 02:11:56 PM 42.5000 -71.3000 90° East 103 119 1,500 -650 Descending KA90
Sun 02:12:56 PM 42.4833 -71.2667 124° Southeast 101 116 700 -800 Descending KA90
Sun 02:14:00 PM 42.4667 -71.2833 216° Southwest  Level FlightAware Approximate
Sun 02:21:00 PM 42.4699 -71.2890 216° Southwest  Level Estimated
Sun 02:22:00 PM 42.4667 -71.2833 216° Southwest  Level FlightAware Approximate
Sun 02:23:00 PM 42.4699 -71.2890 216° Southwest  Level Estimated

Login

Don't have an account? Register now (free) for customized features, flight alerts, and more!